sensor_id;sensor_type;location;lat;lon;timestamp;P1;durP1;ratioP1;P2;durP2;ratioP2
14118;SDS011;7138;49.246;9.100;2023-07-08T00:00:09;8.88;;;5.78;;
14118;SDS011;7138;49.246;9.100;2023-07-08T00:02:40;11.27;;;6.00;;
14118;SDS011;7138;49.246;9.100;2023-07-08T00:05:08;10.73;;;6.72;;
14118;SDS011;7138;49.246;9.100;2023-07-08T00:07:35;9.75;;;6.45;;
14118;SDS011;7138;49.246;9.100;2023-07-08T00:10:04;9.63;;;6.03;;
14118;SDS011;7138;49.246;9.100;2023-07-08T00:12:38;11.73;;;6.00;;
14118;SDS011;7138;49.246;9.100;2023-07-08T00:15:04;11.50;;;6.30;;
14118;SDS011;7138;49.246;9.100;2023-07-08T00:17:35;9.02;;;5.65;;
14118;SDS011;7138;49.246;9.100;2023-07-08T00:20:01;10.05;;;6.35;;
14118;SDS011;7138;49.246;9.100;2023-07-08T00:22:38;12.15;;;5.95;;
14118;SDS011;7138;49.246;9.100;2023-07-08T00:25:06;9.32;;;5.95;;
14118;SDS011;7138;49.246;9.100;2023-07-08T00:27:32;9.80;;;5.57;;
14118;SDS011;7138;49.246;9.100;2023-07-08T00:29:58;9.55;;;6.00;;
14118;SDS011;7138;49.246;9.100;2023-07-08T00:32:26;8.75;;;6.13;;
14118;SDS011;7138;49.246;9.100;2023-07-08T00:34:52;12.10;;;6.43;;
14118;SDS011;7138;49.246;9.100;2023-07-08T00:37:18;11.25;;;5.93;;
14118;SDS011;7138;49.246;9.100;2023-07-08T00:39:44;11.20;;;6.38;;
14118;SDS011;7138;49.246;9.100;2023-07-08T00:42:12;9.63;;;5.93;;
14118;SDS011;7138;49.246;9.100;2023-07-08T00:44:42;9.95;;;6.00;;
14118;SDS011;7138;49.246;9.100;2023-07-08T00:47:09;9.65;;;5.78;;
14118;SDS011;7138;49.246;9.100;2023-07-08T00:49:41;9.65;;;6.05;;
14118;SDS011;7138;49.246;9.100;2023-07-08T00:52:15;11.18;;;6.30;;
14118;SDS011;7138;49.246;9.100;2023-07-08T00:54:44;9.05;;;5.60;;
14118;SDS011;7138;49.246;9.100;2023-07-08T00:57:11;12.63;;;6.28;;
14118;SDS011;7138;49.246;9.100;2023-07-08T00:59:38;9.15;;;5.65;;
14118;SDS011;7138;49.246;9.100;2023-07-08T01:02:11;11.10;;;5.55;;
14118;SDS011;7138;49.246;9.100;2023-07-08T01:04:44;10.45;;;5.75;;
14118;SDS011;7138;49.246;9.100;2023-07-08T01:07:18;9.27;;;5.38;;
14118;SDS011;7138;49.246;9.100;2023-07-08T01:09:47;9.52;;;5.60;;
14118;SDS011;7138;49.246;9.100;2023-07-08T01:12:21;8.93;;;5.60;;
14118;SDS011;7138;49.246;9.100;2023-07-08T01:14:58;10.90;;;6.32;;
14118;SDS011;7138;49.246;9.100;2023-07-08T01:17:27;9.80;;;5.50;;
14118;SDS011;7138;49.246;9.100;2023-07-08T01:22:26;9.45;;;5.90;;
14118;SDS011;7138;49.246;9.100;2023-07-08T01:24:57;9.80;;;5.80;;
14118;SDS011;7138;49.246;9.100;2023-07-08T01:27:28;10.25;;;6.38;;
14118;SDS011;7138;49.246;9.100;2023-07-08T01:29:58;8.50;;;5.40;;
14118;SDS011;7138;49.246;9.100;2023-07-08T01:32:24;10.75;;;6.38;;
14118;SDS011;7138;49.246;9.100;2023-07-08T01:34:52;11.25;;;5.80;;
14118;SDS011;7138;49.246;9.100;2023-07-08T01:37:28;11.82;;;5.68;;
14118;SDS011;7138;49.246;9.100;2023-07-08T01:40:14;10.02;;;5.90;;
14118;SDS011;7138;49.246;9.100;2023-07-08T01:42:51;12.38;;;6.10;;
14118;SDS011;7138;49.246;9.100;2023-07-08T01:45:19;10.00;;;6.00;;
14118;SDS011;7138;49.246;9.100;2023-07-08T01:47:48;9.52;;;5.15;;
14118;SDS011;7138;49.246;9.100;2023-07-08T01:50:20;9.98;;;5.63;;
14118;SDS011;7138;49.246;9.100;2023-07-08T01:52:49;9.23;;;5.50;;
14118;SDS011;7138;49.246;9.100;2023-07-08T01:55:20;10.95;;;5.65;;
14118;SDS011;7138;49.246;9.100;2023-07-08T01:57:48;9.70;;;5.60;;
14118;SDS011;7138;49.246;9.100;2023-07-08T02:00:17;9.50;;;5.93;;
14118;SDS011;7138;49.246;9.100;2023-07-08T02:02:44;10.75;;;6.18;;
14118;SDS011;7138;49.246;9.100;2023-07-08T02:05:10;7.65;;;4.95;;
14118;SDS011;7138;49.246;9.100;2023-07-08T02:07:35;9.98;;;5.50;;
14118;SDS011;7138;49.246;9.100;2023-07-08T02:10:03;9.88;;;5.95;;
14118;SDS011;7138;49.246;9.100;2023-07-08T02:12:30;9.30;;;5.65;;
14118;SDS011;7138;49.246;9.100;2023-07-08T02:14:55;9.52;;;5.75;;
14118;SDS011;7138;49.246;9.100;2023-07-08T02:17:24;9.02;;;5.50;;
14118;SDS011;7138;49.246;9.100;2023-07-08T02:19:50;11.80;;;5.60;;
14118;SDS011;7138;49.246;9.100;2023-07-08T02:22:16;9.38;;;5.97;;
14118;SDS011;7138;49.246;9.100;2023-07-08T02:24:42;12.57;;;6.13;;
14118;SDS011;7138;49.246;9.100;2023-07-08T02:27:09;10.00;;;5.40;;
14118;SDS011;7138;49.246;9.100;2023-07-08T02:29:35;12.93;;;5.50;;
14118;SDS011;7138;49.246;9.100;2023-07-08T02:32:03;9.63;;;5.82;;
14118;SDS011;7138;49.246;9.100;2023-07-08T02:34:29;11.43;;;6.15;;
14118;SDS011;7138;49.246;9.100;2023-07-08T02:36:55;9.45;;;5.60;;
14118;SDS011;7138;49.246;9.100;2023-07-08T02:39:21;9.23;;;5.18;;
14118;SDS011;7138;49.246;9.100;2023-07-08T02:41:47;9.75;;;6.07;;
14118;SDS011;7138;49.246;9.100;2023-07-08T02:44:14;9.07;;;5.80;;
14118;SDS011;7138;49.246;9.100;2023-07-08T02:46:40;10.93;;;5.97;;
14118;SDS011;7138;49.246;9.100;2023-07-08T02:49:06;8.50;;;5.75;;
14118;SDS011;7138;49.246;9.100;2023-07-08T02:51:32;9.38;;;5.60;;
14118;SDS011;7138;49.246;9.100;2023-07-08T02:53:58;8.93;;;5.97;;
14118;SDS011;7138;49.246;9.100;2023-07-08T02:56:24;8.73;;;5.68;;
14118;SDS011;7138;49.246;9.100;2023-07-08T02:58:51;10.23;;;5.70;;
14118;SDS011;7138;49.246;9.100;2023-07-08T03:01:18;10.60;;;6.03;;
14118;SDS011;7138;49.246;9.100;2023-07-08T03:03:44;8.93;;;5.78;;
14118;SDS011;7138;49.246;9.100;2023-07-08T03:06:10;10.73;;;6.13;;
14118;SDS011;7138;49.246;9.100;2023-07-08T03:08:36;9.68;;;5.63;;
14118;SDS011;7138;49.246;9.100;2023-07-08T03:11:03;9.07;;;5.60;;
14118;SDS011;7138;49.246;9.100;2023-07-08T03:13:32;10.43;;;6.07;;
14118;SDS011;7138;49.246;9.100;2023-07-08T03:15:59;10.70;;;5.80;;
14118;SDS011;7138;49.246;9.100;2023-07-08T03:18:38;10.73;;;5.97;;
14118;SDS011;7138;49.246;9.100;2023-07-08T03:21:11;9.15;;;5.75;;
14118;SDS011;7138;49.246;9.100;2023-07-08T03:23:38;11.77;;;5.32;;
14118;SDS011;7138;49.246;9.100;2023-07-08T03:26:04;10.65;;;5.53;;
14118;SDS011;7138;49.246;9.100;2023-07-08T03:28:30;9.25;;;5.45;;
14118;SDS011;7138;49.246;9.100;2023-07-08T03:30:56;12.52;;;5.65;;
14118;SDS011;7138;49.246;9.100;2023-07-08T03:33:21;11.45;;;5.72;;
14118;SDS011;7138;49.246;9.100;2023-07-08T03:35:50;8.95;;;5.88;;
14118;SDS011;7138;49.246;9.100;2023-07-08T03:38:16;9.02;;;5.75;;
14118;SDS011;7138;49.246;9.100;2023-07-08T03:40:41;10.00;;;5.75;;
14118;SDS011;7138;49.246;9.100;2023-07-08T03:43:07;9.63;;;5.47;;
14118;SDS011;7138;49.246;9.100;2023-07-08T03:45:33;10.25;;;5.65;;
14118;SDS011;7138;49.246;9.100;2023-07-08T03:47:59;9.20;;;5.30;;
14118;SDS011;7138;49.246;9.100;2023-07-08T03:50:25;9.77;;;5.80;;
14118;SDS011;7138;49.246;9.100;2023-07-08T03:52:53;11.00;;;5.70;;
14118;SDS011;7138;49.246;9.100;2023-07-08T03:55:21;13.80;;;5.87;;
14118;SDS011;7138;49.246;9.100;2023-07-08T03:57:48;9.90;;;5.93;;
14118;SDS011;7138;49.246;9.100;2023-07-08T04:00:14;10.07;;;5.68;;
14118;SDS011;7138;49.246;9.100;2023-07-08T04:02:40;9.43;;;5.72;;
14118;SDS011;7138;49.246;9.100;2023-07-08T04:05:09;11.60;;;6.22;;
14118;SDS011;7138;49.246;9.100;2023-07-08T04:07:39;11.55;;;5.80;;
14118;SDS011;7138;49.246;9.100;2023-07-08T04:10:07;9.15;;;5.47;;
14118;SDS011;7138;49.246;9.100;2023-07-08T04:12:33;9.88;;;5.45;;
14118;SDS011;7138;49.246;9.100;2023-07-08T04:14:59;10.25;;;6.05;;
14118;SDS011;7138;49.246;9.100;2023-07-08T04:17:25;8.73;;;5.70;;
14118;SDS011;7138;49.246;9.100;2023-07-08T04:19:51;8.93;;;5.90;;
14118;SDS011;7138;49.246;9.100;2023-07-08T04:22:17;8.50;;;5.75;;
14118;SDS011;7138;49.246;9.100;2023-07-08T04:24:43;10.32;;;6.20;;
14118;SDS011;7138;49.246;9.100;2023-07-08T04:27:12;8.63;;;5.38;;
14118;SDS011;7138;49.246;9.100;2023-07-08T04:29:40;10.40;;;6.18;;
14118;SDS011;7138;49.246;9.100;2023-07-08T04:32:07;10.68;;;5.55;;
14118;SDS011;7138;49.246;9.100;2023-07-08T04:34:33;10.23;;;5.93;;
14118;SDS011;7138;49.246;9.100;2023-07-08T04:36:59;11.40;;;5.78;;
14118;SDS011;7138;49.246;9.100;2023-07-08T04:39:24;11.13;;;5.70;;
14118;SDS011;7138;49.246;9.100;2023-07-08T04:41:51;9.95;;;6.32;;
14118;SDS011;7138;49.246;9.100;2023-07-08T04:44:18;10.50;;;6.00;;
14118;SDS011;7138;49.246;9.100;2023-07-08T04:46:45;12.07;;;5.57;;
14118;SDS011;7138;49.246;9.100;2023-07-08T04:49:16;10.88;;;6.00;;
14118;SDS011;7138;49.246;9.100;2023-07-08T04:51:42;9.60;;;5.97;;
14118;SDS011;7138;49.246;9.100;2023-07-08T04:54:08;10.15;;;6.18;;
14118;SDS011;7138;49.246;9.100;2023-07-08T04:56:36;11.48;;;5.78;;
14118;SDS011;7138;49.246;9.100;2023-07-08T04:59:04;8.63;;;5.45;;
14118;SDS011;7138;49.246;9.100;2023-07-08T05:01:32;12.05;;;6.30;;
14118;SDS011;7138;49.246;9.100;2023-07-08T05:03:58;11.32;;;6.68;;
14118;SDS011;7138;49.246;9.100;2023-07-08T05:06:25;14.45;;;6.40;;
14118;SDS011;7138;49.246;9.100;2023-07-08T05:08:51;12.70;;;6.10;;
14118;SDS011;7138;49.246;9.100;2023-07-08T05:11:17;10.10;;;6.57;;
14118;SDS011;7138;49.246;9.100;2023-07-08T05:13:43;11.70;;;5.88;;
14118;SDS011;7138;49.246;9.100;2023-07-08T05:16:08;9.82;;;5.82;;
14118;SDS011;7138;49.246;9.100;2023-07-08T05:18:36;10.55;;;5.82;;
14118;SDS011;7138;49.246;9.100;2023-07-08T05:21:01;9.40;;;5.80;;
14118;SDS011;7138;49.246;9.100;2023-07-08T05:23:28;8.80;;;5.05;;
14118;SDS011;7138;49.246;9.100;2023-07-08T05:25:54;15.32;;;6.20;;
14118;SDS011;7138;49.246;9.100;2023-07-08T05:28:20;8.55;;;5.25;;
14118;SDS011;7138;49.246;9.100;2023-07-08T05:30:51;9.32;;;5.65;;
14118;SDS011;7138;49.246;9.100;2023-07-08T05:33:19;8.98;;;4.90;;
14118;SDS011;7138;49.246;9.100;2023-07-08T05:35:46;10.35;;;5.60;;
14118;SDS011;7138;49.246;9.100;2023-07-08T05:38:12;8.57;;;5.28;;
14118;SDS011;7138;49.246;9.100;2023-07-08T05:40:38;9.00;;;5.40;;
14118;SDS011;7138;49.246;9.100;2023-07-08T05:43:04;9.60;;;5.15;;
14118;SDS011;7138;49.246;9.100;2023-07-08T05:45:30;11.20;;;5.35;;
14118;SDS011;7138;49.246;9.100;2023-07-08T05:47:56;8.05;;;5.30;;
14118;SDS011;7138;49.246;9.100;2023-07-08T05:50:21;7.25;;;5.07;;
14118;SDS011;7138;49.246;9.100;2023-07-08T05:52:49;7.47;;;5.25;;
14118;SDS011;7138;49.246;9.100;2023-07-08T05:55:14;8.38;;;4.68;;
14118;SDS011;7138;49.246;9.100;2023-07-08T05:57:40;8.07;;;5.15;;
14118;SDS011;7138;49.246;9.100;2023-07-08T06:00:09;8.10;;;5.43;;
14118;SDS011;7138;49.246;9.100;2023-07-08T06:05:02;7.35;;;4.55;;
14118;SDS011;7138;49.246;9.100;2023-07-08T06:07:28;11.48;;;4.80;;
14118;SDS011;7138;49.246;9.100;2023-07-08T06:09:55;7.15;;;4.25;;
14118;SDS011;7138;49.246;9.100;2023-07-08T06:12:21;6.82;;;4.55;;
14118;SDS011;7138;49.246;9.100;2023-07-08T06:14:48;6.97;;;4.45;;
14118;SDS011;7138;49.246;9.100;2023-07-08T06:17:13;6.68;;;4.40;;
14118;SDS011;7138;49.246;9.100;2023-07-08T06:19:39;7.28;;;4.88;;
14118;SDS011;7138;49.246;9.100;2023-07-08T06:22:05;7.57;;;4.38;;
14118;SDS011;7138;49.246;9.100;2023-07-08T06:24:31;7.07;;;4.40;;
14118;SDS011;7138;49.246;9.100;2023-07-08T06:26:58;9.70;;;5.20;;
14118;SDS011;7138;49.246;9.100;2023-07-08T06:29:24;7.25;;;5.03;;
14118;SDS011;7138;49.246;9.100;2023-07-08T06:31:50;8.65;;;4.70;;
14118;SDS011;7138;49.246;9.100;2023-07-08T06:34:17;11.35;;;4.80;;
14118;SDS011;7138;49.246;9.100;2023-07-08T06:36:43;7.05;;;5.00;;
14118;SDS011;7138;49.246;9.100;2023-07-08T06:39:09;7.53;;;4.95;;
14118;SDS011;7138;49.246;9.100;2023-07-08T06:41:36;7.50;;;5.10;;
14118;SDS011;7138;49.246;9.100;2023-07-08T06:44:03;8.90;;;5.60;;
14118;SDS011;7138;49.246;9.100;2023-07-08T06:46:29;6.53;;;4.63;;
14118;SDS011;7138;49.246;9.100;2023-07-08T06:48:55;7.88;;;4.80;;
14118;SDS011;7138;49.246;9.100;2023-07-08T06:51:21;7.10;;;4.63;;
14118;SDS011;7138;49.246;9.100;2023-07-08T06:53:47;8.85;;;4.55;;
14118;SDS011;7138;49.246;9.100;2023-07-08T06:56:13;12.40;;;4.85;;
14118;SDS011;7138;49.246;9.100;2023-07-08T06:58:39;7.50;;;4.65;;
14118;SDS011;7138;49.246;9.100;2023-07-08T07:01:06;8.85;;;5.38;;
14118;SDS011;7138;49.246;9.100;2023-07-08T07:03:32;6.72;;;4.75;;
14118;SDS011;7138;49.246;9.100;2023-07-08T07:05:57;8.70;;;4.82;;
14118;SDS011;7138;49.246;9.100;2023-07-08T07:08:23;8.05;;;4.70;;
14118;SDS011;7138;49.246;9.100;2023-07-08T07:10:49;12.18;;;5.57;;
14118;SDS011;7138;49.246;9.100;2023-07-08T07:13:15;8.77;;;4.97;;
14118;SDS011;7138;49.246;9.100;2023-07-08T07:15:41;8.23;;;4.70;;
14118;SDS011;7138;49.246;9.100;2023-07-08T07:18:08;9.35;;;5.15;;
14118;SDS011;7138;49.246;9.100;2023-07-08T07:20:35;8.30;;;4.80;;
14118;SDS011;7138;49.246;9.100;2023-07-08T07:23:03;8.82;;;5.05;;
14118;SDS011;7138;49.246;9.100;2023-07-08T07:25:29;8.80;;;5.03;;
14118;SDS011;7138;49.246;9.100;2023-07-08T07:27:55;8.15;;;4.43;;
14118;SDS011;7138;49.246;9.100;2023-07-08T07:30:21;8.13;;;4.40;;
14118;SDS011;7138;49.246;9.100;2023-07-08T07:32:47;9.32;;;4.85;;
14118;SDS011;7138;49.246;9.100;2023-07-08T07:35:14;7.00;;;3.80;;
14118;SDS011;7138;49.246;9.100;2023-07-08T07:37:40;8.80;;;4.63;;
14118;SDS011;7138;49.246;9.100;2023-07-08T07:40:09;7.72;;;4.35;;
14118;SDS011;7138;49.246;9.100;2023-07-08T07:42:39;8.13;;;4.18;;
14118;SDS011;7138;49.246;9.100;2023-07-08T07:45:08;7.80;;;4.45;;
14118;SDS011;7138;49.246;9.100;2023-07-08T07:47:35;9.23;;;4.38;;
14118;SDS011;7138;49.246;9.100;2023-07-08T07:50:01;7.43;;;4.20;;
14118;SDS011;7138;49.246;9.100;2023-07-08T07:52:30;6.57;;;3.88;;
14118;SDS011;7138;49.246;9.100;2023-07-08T07:55:00;8.50;;;4.05;;
14118;SDS011;7138;49.246;9.100;2023-07-08T07:57:26;6.38;;;3.58;;
14118;SDS011;7138;49.246;9.100;2023-07-08T07:59:52;7.07;;;3.90;;
14118;SDS011;7138;49.246;9.100;2023-07-08T08:02:18;6.90;;;3.75;;
14118;SDS011;7138;49.246;9.100;2023-07-08T08:04:44;6.97;;;3.97;;
14118;SDS011;7138;49.246;9.100;2023-07-08T08:07:10;6.65;;;3.70;;
14118;SDS011;7138;49.246;9.100;2023-07-08T08:09:37;7.10;;;3.78;;
14118;SDS011;7138;49.246;9.100;2023-07-08T08:12:03;9.18;;;4.00;;
14118;SDS011;7138;49.246;9.100;2023-07-08T08:14:32;5.85;;;3.35;;
14118;SDS011;7138;49.246;9.100;2023-07-08T08:16:58;6.25;;;3.83;;
14118;SDS011;7138;49.246;9.100;2023-07-08T08:19:24;7.10;;;3.40;;
14118;SDS011;7138;49.246;9.100;2023-07-08T08:21:49;5.57;;;3.30;;
14118;SDS011;7138;49.246;9.100;2023-07-08T08:24:15;8.00;;;3.28;;
14118;SDS011;7138;49.246;9.100;2023-07-08T08:26:42;6.90;;;3.47;;
14118;SDS011;7138;49.246;9.100;2023-07-08T08:29:08;5.88;;;3.53;;
14118;SDS011;7138;49.246;9.100;2023-07-08T08:31:34;7.57;;;3.22;;
14118;SDS011;7138;49.246;9.100;2023-07-08T08:34:00;7.07;;;3.28;;
14118;SDS011;7138;49.246;9.100;2023-07-08T08:36:26;7.03;;;3.55;;
14118;SDS011;7138;49.246;9.100;2023-07-08T08:38:52;7.47;;;3.67;;
14118;SDS011;7138;49.246;9.100;2023-07-08T08:41:18;5.68;;;3.10;;
14118;SDS011;7138;49.246;9.100;2023-07-08T08:44:00;8.75;;;3.20;;
14118;SDS011;7138;49.246;9.100;2023-07-08T08:46:34;7.00;;;3.58;;
14118;SDS011;7138;49.246;9.100;2023-07-08T08:49:13;5.50;;;3.10;;
14118;SDS011;7138;49.246;9.100;2023-07-08T08:51:48;7.20;;;3.33;;
14118;SDS011;7138;49.246;9.100;2023-07-08T08:54:16;6.68;;;3.33;;
14118;SDS011;7138;49.246;9.100;2023-07-08T08:56:45;9.70;;;3.35;;
14118;SDS011;7138;49.246;9.100;2023-07-08T08:59:27;7.03;;;3.22;;
14118;SDS011;7138;49.246;9.100;2023-07-08T09:02:09;5.85;;;3.22;;
14118;SDS011;7138;49.246;9.100;2023-07-08T09:04:53;6.47;;;3.10;;
14118;SDS011;7138;49.246;9.100;2023-07-08T09:07:23;6.25;;;3.08;;
14118;SDS011;7138;49.246;9.100;2023-07-08T09:09:53;6.68;;;3.20;;
14118;SDS011;7138;49.246;9.100;2023-07-08T09:12:27;6.20;;;3.20;;
14118;SDS011;7138;49.246;9.100;2023-07-08T09:14:59;6.20;;;3.20;;
14118;SDS011;7138;49.246;9.100;2023-07-08T09:17:34;6.97;;;3.22;;
14118;SDS011;7138;49.246;9.100;2023-07-08T09:20:03;6.63;;;2.92;;
14118;SDS011;7138;49.246;9.100;2023-07-08T09:22:43;6.53;;;3.10;;
14118;SDS011;7138;49.246;9.100;2023-07-08T09:25:20;6.30;;;2.80;;
14118;SDS011;7138;49.246;9.100;2023-07-08T09:27:51;8.55;;;3.28;;
14118;SDS011;7138;49.246;9.100;2023-07-08T09:30:19;6.28;;;3.17;;
14118;SDS011;7138;49.246;9.100;2023-07-08T09:32:48;6.80;;;3.20;;
14118;SDS011;7138;49.246;9.100;2023-07-08T09:35:17;6.05;;;3.30;;
14118;SDS011;7138;49.246;9.100;2023-07-08T09:37:45;6.10;;;3.25;;
14118;SDS011;7138;49.246;9.100;2023-07-08T09:40:15;9.45;;;3.08;;
14118;SDS011;7138;49.246;9.100;2023-07-08T09:42:43;5.93;;;3.17;;
14118;SDS011;7138;49.246;9.100;2023-07-08T09:45:17;6.68;;;3.75;;
14118;SDS011;7138;49.246;9.100;2023-07-08T09:47:51;5.80;;;3.70;;
14118;SDS011;7138;49.246;9.100;2023-07-08T09:50:21;7.60;;;3.30;;
14118;SDS011;7138;49.246;9.100;2023-07-08T09:52:50;5.82;;;3.20;;
14118;SDS011;7138;49.246;9.100;2023-07-08T09:55:20;6.22;;;3.60;;
14118;SDS011;7138;49.246;9.100;2023-07-08T09:57:46;9.30;;;3.70;;
14118;SDS011;7138;49.246;9.100;2023-07-08T10:00:16;6.90;;;3.60;;
14118;SDS011;7138;49.246;9.100;2023-07-08T10:02:53;6.40;;;3.47;;
14118;SDS011;7138;49.246;9.100;2023-07-08T10:05:23;10.60;;;4.00;;
14118;SDS011;7138;49.246;9.100;2023-07-08T10:07:57;6.97;;;3.90;;
14118;SDS011;7138;49.246;9.100;2023-07-08T10:10:28;9.30;;;3.83;;
14118;SDS011;7138;49.246;9.100;2023-07-08T10:13:00;9.45;;;4.03;;
14118;SDS011;7138;49.246;9.100;2023-07-08T10:15:33;9.30;;;3.70;;
14118;SDS011;7138;49.246;9.100;2023-07-08T10:18:05;7.28;;;3.42;;
14118;SDS011;7138;49.246;9.100;2023-07-08T10:20:42;7.72;;;3.90;;
14118;SDS011;7138;49.246;9.100;2023-07-08T10:23:24;7.95;;;3.75;;
14118;SDS011;7138;49.246;9.100;2023-07-08T10:26:06;8.27;;;4.22;;
14118;SDS011;7138;49.246;9.100;2023-07-08T10:28:48;7.97;;;3.78;;
14118;SDS011;7138;49.246;9.100;2023-07-08T10:31:46;9.02;;;3.80;;
14118;SDS011;7138;49.246;9.100;2023-07-08T10:34:24;8.07;;;4.07;;
14118;SDS011;7138;49.246;9.100;2023-07-08T10:37:07;7.88;;;4.07;;
14118;SDS011;7138;49.246;9.100;2023-07-08T10:39:51;8.07;;;3.60;;
14118;SDS011;7138;49.246;9.100;2023-07-08T10:42:40;7.38;;;4.10;;
14118;SDS011;7138;49.246;9.100;2023-07-08T10:45:31;10.07;;;3.60;;
14118;SDS011;7138;49.246;9.100;2023-07-08T10:48:14;10.27;;;3.17;;
14118;SDS011;7138;49.246;9.100;2023-07-08T10:51:01;7.30;;;3.50;;
14118;SDS011;7138;49.246;9.100;2023-07-08T10:53:45;6.07;;;3.47;;
14118;SDS011;7138;49.246;9.100;2023-07-08T10:56:27;6.47;;;3.30;;
14118;SDS011;7138;49.246;9.100;2023-07-08T10:59:13;6.25;;;3.10;;
14118;SDS011;7138;49.246;9.100;2023-07-08T11:02:15;7.68;;;3.60;;
14118;SDS011;7138;49.246;9.100;2023-07-08T11:05:16;6.70;;;3.42;;
14118;SDS011;7138;49.246;9.100;2023-07-08T11:07:56;7.63;;;3.55;;
14118;SDS011;7138;49.246;9.100;2023-07-08T11:10:31;5.70;;;3.15;;
14118;SDS011;7138;49.246;9.100;2023-07-08T11:13:03;6.22;;;3.40;;
14118;SDS011;7138;49.246;9.100;2023-07-08T11:15:40;8.70;;;3.28;;
14118;SDS011;7138;49.246;9.100;2023-07-08T11:18:14;6.45;;;3.08;;
14118;SDS011;7138;49.246;9.100;2023-07-08T11:20:50;8.02;;;3.10;;
14118;SDS011;7138;49.246;9.100;2023-07-08T11:23:26;8.48;;;3.60;;
14118;SDS011;7138;49.246;9.100;2023-07-08T11:26:06;8.48;;;3.60;;
14118;SDS011;7138;49.246;9.100;2023-07-08T11:28:41;7.30;;;3.53;;
14118;SDS011;7138;49.246;9.100;2023-07-08T11:31:07;6.57;;;3.40;;
14118;SDS011;7138;49.246;9.100;2023-07-08T11:33:35;7.43;;;2.80;;
14118;SDS011;7138;49.246;9.100;2023-07-08T11:36:05;8.65;;;3.10;;
14118;SDS011;7138;49.246;9.100;2023-07-08T11:41:04;6.00;;;2.97;;
14118;SDS011;7138;49.246;9.100;2023-07-08T11:43:44;9.68;;;3.20;;
14118;SDS011;7138;49.246;9.100;2023-07-08T11:46:14;5.63;;;2.80;;
14118;SDS011;7138;49.246;9.100;2023-07-08T11:48:46;6.25;;;3.08;;
14118;SDS011;7138;49.246;9.100;2023-07-08T11:51:18;5.25;;;2.85;;
14118;SDS011;7138;49.246;9.100;2023-07-08T11:53:58;5.22;;;2.80;;
14118;SDS011;7138;49.246;9.100;2023-07-08T11:56:26;6.57;;;2.85;;
14118;SDS011;7138;49.246;9.100;2023-07-08T12:01:45;6.20;;;2.75;;
14118;SDS011;7138;49.246;9.100;2023-07-08T12:04:23;7.43;;;2.92;;
14118;SDS011;7138;49.246;9.100;2023-07-08T12:07:05;5.05;;;2.85;;
14118;SDS011;7138;49.246;9.100;2023-07-08T12:09:38;7.47;;;2.90;;
14118;SDS011;7138;49.246;9.100;2023-07-08T12:12:23;5.70;;;2.83;;
14118;SDS011;7138;49.246;9.100;2023-07-08T12:15:00;5.50;;;2.55;;
14118;SDS011;7138;49.246;9.100;2023-07-08T12:17:36;5.50;;;2.70;;
14118;SDS011;7138;49.246;9.100;2023-07-08T12:20:06;5.32;;;2.70;;
14118;SDS011;7138;49.246;9.100;2023-07-08T12:22:43;7.13;;;3.20;;
14118;SDS011;7138;49.246;9.100;2023-07-08T12:25:10;5.88;;;2.72;;
14118;SDS011;7138;49.246;9.100;2023-07-08T12:27:41;7.50;;;3.45;;
14118;SDS011;7138;49.246;9.100;2023-07-08T12:30:07;5.97;;;2.78;;
14118;SDS011;7138;49.246;9.100;2023-07-08T12:32:36;8.90;;;3.40;;
14118;SDS011;7138;49.246;9.100;2023-07-08T12:35:02;8.38;;;3.10;;
14118;SDS011;7138;49.246;9.100;2023-07-08T12:37:30;5.75;;;2.88;;
14118;SDS011;7138;49.246;9.100;2023-07-08T12:40:01;7.75;;;2.90;;
14118;SDS011;7138;49.246;9.100;2023-07-08T12:42:34;5.93;;;2.95;;
14118;SDS011;7138;49.246;9.100;2023-07-08T12:45:00;5.18;;;2.70;;
14118;SDS011;7138;49.246;9.100;2023-07-08T12:47:26;6.60;;;3.00;;
14118;SDS011;7138;49.246;9.100;2023-07-08T12:49:52;5.75;;;3.10;;
14118;SDS011;7138;49.246;9.100;2023-07-08T12:52:19;5.82;;;2.80;;
14118;SDS011;7138;49.246;9.100;2023-07-08T12:54:47;7.85;;;3.20;;
14118;SDS011;7138;49.246;9.100;2023-07-08T12:57:15;9.80;;;2.83;;
14118;SDS011;7138;49.246;9.100;2023-07-08T12:59:43;7.80;;;2.80;;
14118;SDS011;7138;49.246;9.100;2023-07-08T13:02:12;5.95;;;2.90;;
14118;SDS011;7138;49.246;9.100;2023-07-08T13:04:44;7.93;;;2.78;;
14118;SDS011;7138;49.246;9.100;2023-07-08T13:07:13;7.68;;;3.03;;
14118;SDS011;7138;49.246;9.100;2023-07-08T13:09:54;5.63;;;2.50;;
14118;SDS011;7138;49.246;9.100;2023-07-08T13:12:21;9.55;;;3.22;;
14118;SDS011;7138;49.246;9.100;2023-07-08T13:14:49;4.50;;;2.53;;
14118;SDS011;7138;49.246;9.100;2023-07-08T13:17:19;5.90;;;3.10;;
14118;SDS011;7138;49.246;9.100;2023-07-08T13:19:45;8.02;;;3.17;;
14118;SDS011;7138;49.246;9.100;2023-07-08T13:22:15;6.45;;;2.80;;
14118;SDS011;7138;49.246;9.100;2023-07-08T13:24:44;4.93;;;2.75;;
14118;SDS011;7138;49.246;9.100;2023-07-08T13:27:13;5.05;;;2.72;;
14118;SDS011;7138;49.246;9.100;2023-07-08T13:29:50;5.10;;;2.58;;
14118;SDS011;7138;49.246;9.100;2023-07-08T13:32:17;5.03;;;3.00;;
14118;SDS011;7138;49.246;9.100;2023-07-08T13:34:43;5.82;;;2.63;;
14118;SDS011;7138;49.246;9.100;2023-07-08T13:37:10;5.72;;;3.00;;
14118;SDS011;7138;49.246;9.100;2023-07-08T13:39:43;7.22;;;2.53;;
14118;SDS011;7138;49.246;9.100;2023-07-08T13:42:11;5.78;;;2.88;;
14118;SDS011;7138;49.246;9.100;2023-07-08T13:44:43;10.13;;;2.95;;
14118;SDS011;7138;49.246;9.100;2023-07-08T13:47:18;5.68;;;2.72;;
14118;SDS011;7138;49.246;9.100;2023-07-08T13:49:49;5.45;;;3.00;;
14118;SDS011;7138;49.246;9.100;2023-07-08T13:52:23;4.95;;;2.47;;
14118;SDS011;7138;49.246;9.100;2023-07-08T13:54:50;6.95;;;3.05;;
14118;SDS011;7138;49.246;9.100;2023-07-08T13:57:21;5.72;;;2.58;;
14118;SDS011;7138;49.246;9.100;2023-07-08T13:59:54;4.38;;;2.63;;
14118;SDS011;7138;49.246;9.100;2023-07-08T14:02:21;6.70;;;3.42;;
14118;SDS011;7138;49.246;9.100;2023-07-08T14:04:50;5.65;;;2.80;;
14118;SDS011;7138;49.246;9.100;2023-07-08T14:07:19;6.10;;;3.08;;
14118;SDS011;7138;49.246;9.100;2023-07-08T14:09:48;6.07;;;2.75;;
14118;SDS011;7138;49.246;9.100;2023-07-08T14:12:13;5.60;;;2.75;;
14118;SDS011;7138;49.246;9.100;2023-07-08T14:14:39;6.97;;;2.80;;
14118;SDS011;7138;49.246;9.100;2023-07-08T14:17:08;5.85;;;2.58;;
14118;SDS011;7138;49.246;9.100;2023-07-08T14:19:46;7.20;;;2.70;;
14118;SDS011;7138;49.246;9.100;2023-07-08T14:22:19;5.75;;;2.95;;
14118;SDS011;7138;49.246;9.100;2023-07-08T14:24:48;5.05;;;2.50;;
14118;SDS011;7138;49.246;9.100;2023-07-08T14:27:14;5.55;;;2.83;;
14118;SDS011;7138;49.246;9.100;2023-07-08T14:29:42;7.22;;;2.83;;
14118;SDS011;7138;49.246;9.100;2023-07-08T14:32:14;5.05;;;2.72;;
14118;SDS011;7138;49.246;9.100;2023-07-08T14:34:48;6.32;;;3.15;;
14118;SDS011;7138;49.246;9.100;2023-07-08T14:37:16;6.38;;;3.13;;
14118;SDS011;7138;49.246;9.100;2023-07-08T14:39:43;7.57;;;4.88;;
14118;SDS011;7138;49.246;9.100;2023-07-08T14:42:10;5.23;;;4.03;;
14118;SDS011;7138;49.246;9.100;2023-07-08T14:44:40;9.40;;;3.75;;
14118;SDS011;7138;49.246;9.100;2023-07-08T14:47:08;5.90;;;3.00;;
14118;SDS011;7138;49.246;9.100;2023-07-08T14:49:37;5.07;;;2.50;;
14118;SDS011;7138;49.246;9.100;2023-07-08T14:52:03;7.93;;;3.35;;
14118;SDS011;7138;49.246;9.100;2023-07-08T14:54:31;5.78;;;2.90;;
14118;SDS011;7138;49.246;9.100;2023-07-08T14:56:57;8.40;;;3.33;;
14118;SDS011;7138;49.246;9.100;2023-07-08T14:59:24;7.82;;;4.85;;
14118;SDS011;7138;49.246;9.100;2023-07-08T15:01:54;6.15;;;3.00;;
14118;SDS011;7138;49.246;9.100;2023-07-08T15:04:22;6.78;;;3.13;;
14118;SDS011;7138;49.246;9.100;2023-07-08T15:06:49;7.53;;;3.40;;
14118;SDS011;7138;49.246;9.100;2023-07-08T15:11:43;4.25;;;2.60;;
14118;SDS011;7138;49.246;9.100;2023-07-08T15:14:12;6.65;;;3.15;;
14118;SDS011;7138;49.246;9.100;2023-07-08T15:16:46;7.25;;;2.60;;
14118;SDS011;7138;49.246;9.100;2023-07-08T15:19:13;7.90;;;2.58;;
14118;SDS011;7138;49.246;9.100;2023-07-08T15:21:39;5.75;;;2.80;;
14118;SDS011;7138;49.246;9.100;2023-07-08T15:24:08;5.60;;;2.45;;